PSLKS SBGL-SBFZ
Flight info
| Callsign | PSLKS |
|---|---|
| Flight time | 2h 43m |
| Altitude | 45000 |
| Route | IMBAP UZ1 DOTKU |
| Aircraft | C700/M-SBDGHM1RWXY/LB2 |
Departure
| Time | 2026-05-01 10:23 |
|---|---|
| Airport | Rio Galeão – Tom Jobim International Airport (SBGL) |
Arrival
| Time | 2026-05-01 13:07 |
|---|---|
| Airport | Pinto Martins International Airport (SBFZ) |
| Time | Latitude | Longitude | Altitude | Speed | Heading |
|---|---|---|---|---|---|
| 2026-05-01 10:12 | -22.80096 | -43.22724 | 32 ft | 0 kts | 221° |
| 2026-05-01 10:15 | -22.80099 | -43.22725 | 32 ft | 1 kts | 204° |
| 2026-05-01 10:16 | -22.80101 | -43.22725 | 32 ft | 0 kts | 189° |
| 2026-05-01 10:16 | -22.80111 | -43.22713 | 32 ft | 3 kts | 70° |
| 2026-05-01 10:16 | -22.79974 | -43.22642 | 32 ft | 14 kts | 23° |
| 2026-05-01 10:17 | -22.79872 | -43.22644 | 32 ft | 16 kts | 344° |
| 2026-05-01 10:17 | -22.79846 | -43.22836 | 33 ft | 17 kts | 255° |
| 2026-05-01 10:17 | -22.79879 | -43.22973 | 30 ft | 21 kts | 255° |
| 2026-05-01 10:18 | -22.79970 | -43.23308 | 24 ft | 25 kts | 255° |
| 2026-05-01 10:18 | -22.80012 | -43.23477 | 23 ft | 23 kts | 254° |
| 2026-05-01 10:18 | -22.80055 | -43.23642 | 24 ft | 23 kts | 254° |
| 2026-05-01 10:19 | -22.80097 | -43.23816 | 24 ft | 25 kts | 255° |
| 2026-05-01 10:19 | -22.80142 | -43.23981 | 25 ft | 23 kts | 254° |
| 2026-05-01 10:19 | -22.80186 | -43.24157 | 23 ft | 25 kts | 255° |
| 2026-05-01 10:20 | -22.80269 | -43.24481 | 22 ft | 24 kts | 253° |
| 2026-05-01 10:20 | -22.80316 | -43.24654 | 19 ft | 22 kts | 254° |
| 2026-05-01 10:20 | -22.80343 | -43.24806 | 20 ft | 16 kts | 277° |
| 2026-05-01 10:20 | -22.80317 | -43.24931 | 22 ft | 18 kts | 279° |
| 2026-05-01 10:21 | -22.80312 | -43.25074 | 20 ft | 20 kts | 265° |
| 2026-05-01 10:21 | -22.80361 | -43.25256 | 22 ft | 8 kts | 259° |
| 2026-05-01 10:21 | -22.80343 | -43.25318 | 24 ft | 10 kts | 300° |
| 2026-05-01 10:22 | -22.80254 | -43.25480 | 21 ft | 16 kts | 311° |
| 2026-05-01 10:22 | -22.80151 | -43.25369 | 21 ft | 50 kts | 74° |
| 2026-05-01 10:23 | -22.79968 | -43.24662 | 29 ft | 141 kts | 74° |
| 2026-05-01 10:23 | -22.79401 | -43.22071 | 1533 ft | 201 kts | 79° |
| 2026-05-01 10:23 | -22.79118 | -43.20589 | 2923 ft | 203 kts | 77° |
| 2026-05-01 10:24 | -22.78361 | -43.17216 | 5011 ft | 258 kts | 76° |
| 2026-05-01 10:24 | -22.77502 | -43.13289 | 7857 ft | 275 kts | 77° |
| 2026-05-01 10:25 | -22.76590 | -43.09151 | 10557 ft | 292 kts | 77° |
| 2026-05-01 10:25 | -22.75574 | -43.04544 | 12714 ft | 325 kts | 77° |
| 2026-05-01 10:26 | -22.74984 | -43.02154 | 13972 ft | 334 kts | 70° |
| 2026-05-01 10:26 | -22.73682 | -43.00067 | 15134 ft | 342 kts | 42° |
| 2026-05-01 10:26 | -22.69150 | -42.98721 | 17377 ft | 354 kts | 354° |
| 2026-05-01 10:27 | -22.63966 | -42.99390 | 18112 ft | 409 kts | 359° |
| 2026-05-01 10:27 | -22.58068 | -42.98586 | 18133 ft | 432 kts | 6° |
| 2026-05-01 10:28 | -22.55117 | -42.98030 | 18130 ft | 430 kts | 11° |
| 2026-05-01 10:28 | -22.49359 | -42.96373 | 18124 ft | 428 kts | 13° |
| 2026-05-01 10:28 | -22.46455 | -42.95681 | 18127 ft | 428 kts | 10° |
| 2026-05-01 10:29 | -22.40628 | -42.94316 | 18128 ft | 429 kts | 12° |
| 2026-05-01 10:29 | -22.37727 | -42.93553 | 18127 ft | 429 kts | 12° |
| 2026-05-01 10:30 | -22.31862 | -42.92546 | 18122 ft | 427 kts | 359° |
| 2026-05-01 10:30 | -22.26018 | -42.93297 | 18135 ft | 426 kts | 349° |
| 2026-05-01 10:31 | -22.20142 | -42.94130 | 18126 ft | 427 kts | 357° |
| 2026-05-01 10:31 | -22.14289 | -42.93156 | 18534 ft | 421 kts | 18° |
| 2026-05-01 10:32 | -22.09389 | -42.90452 | 22234 ft | 383 kts | 31° |
| 2026-05-01 10:32 | -22.07103 | -42.88887 | 22943 ft | 394 kts | 31° |
| 2026-05-01 10:32 | -22.02434 | -42.85648 | 24651 ft | 404 kts | 32° |
| 2026-05-01 10:33 | -21.97635 | -42.82330 | 26235 ft | 415 kts | 31° |
| 2026-05-01 10:33 | -21.92728 | -42.78940 | 27728 ft | 424 kts | 32° |
| 2026-05-01 10:34 | -21.90233 | -42.77213 | 28448 ft | 428 kts | 32° |
| 2026-05-01 10:34 | -21.87712 | -42.75474 | 29108 ft | 433 kts | 32° |
| 2026-05-01 10:34 | -21.85153 | -42.73710 | 29771 ft | 438 kts | 32° |
| 2026-05-01 10:35 | -21.79970 | -42.70135 | 31066 ft | 447 kts | 32° |
| 2026-05-01 10:35 | -21.77342 | -42.68325 | 31656 ft | 451 kts | 32° |
| 2026-05-01 10:35 | -21.74684 | -42.66492 | 32238 ft | 456 kts | 32° |
| 2026-05-01 10:35 | -21.72003 | -42.64644 | 32781 ft | 459 kts | 32° |
| 2026-05-01 10:36 | -21.66594 | -42.60925 | 34018 ft | 461 kts | 32° |
| 2026-05-01 10:36 | -21.63808 | -42.59224 | 34687 ft | 459 kts | 23° |
| 2026-05-01 10:36 | -21.60829 | -42.58053 | 35377 ft | 455 kts | 14° |
| 2026-05-01 10:37 | -21.57790 | -42.57282 | 36052 ft | 453 kts | 11° |
| 2026-05-01 10:37 | -21.51658 | -42.55763 | 37272 ft | 450 kts | 11° |
| 2026-05-01 10:37 | -21.48622 | -42.55007 | 37910 ft | 445 kts | 11° |
| 2026-05-01 10:38 | -21.45610 | -42.54261 | 38363 ft | 444 kts | 11° |
| 2026-05-01 10:38 | -21.42593 | -42.53518 | 38715 ft | 444 kts | 11° |
| 2026-05-01 10:38 | -21.39589 | -42.52774 | 39067 ft | 444 kts | 11° |
| 2026-05-01 10:38 | -21.36579 | -42.52027 | 39384 ft | 444 kts | 11° |
| 2026-05-01 10:39 | -21.33569 | -42.51283 | 39720 ft | 443 kts | 11° |
| 2026-05-01 10:39 | -21.30562 | -42.50540 | 40030 ft | 443 kts | 11° |
| 2026-05-01 10:39 | -21.27556 | -42.49797 | 40312 ft | 443 kts | 11° |
| 2026-05-01 10:39 | -21.25524 | -42.49295 | 40510 ft | 443 kts | 11° |
| 2026-05-01 10:40 | -21.22562 | -42.48563 | 40778 ft | 443 kts | 11° |
| 2026-05-01 10:40 | -21.19528 | -42.47814 | 41040 ft | 442 kts | 11° |
| 2026-05-01 10:40 | -21.16527 | -42.47074 | 41270 ft | 442 kts | 11° |
| 2026-05-01 10:40 | -21.13528 | -42.46334 | 41501 ft | 442 kts | 11° |
| 2026-05-01 10:41 | -21.10531 | -42.45595 | 41728 ft | 442 kts | 11° |
| 2026-05-01 10:41 | -21.07535 | -42.44857 | 41936 ft | 442 kts | 11° |
| 2026-05-01 10:41 | -21.01589 | -42.43392 | 42329 ft | 441 kts | 11° |
| 2026-05-01 10:42 | -20.98597 | -42.42656 | 42512 ft | 441 kts | 11° |
| 2026-05-01 10:42 | -20.95606 | -42.41919 | 42690 ft | 441 kts | 11° |
| 2026-05-01 10:42 | -20.92621 | -42.41186 | 42856 ft | 441 kts | 11° |
| 2026-05-01 10:42 | -20.89633 | -42.40451 | 43026 ft | 441 kts | 11° |
| 2026-05-01 10:43 | -20.86645 | -42.39717 | 43180 ft | 441 kts | 11° |
| 2026-05-01 10:43 | -20.83657 | -42.38983 | 43340 ft | 440 kts | 11° |
| 2026-05-01 10:43 | -20.80672 | -42.38250 | 43488 ft | 440 kts | 11° |
| 2026-05-01 10:43 | -20.77687 | -42.37518 | 43629 ft | 440 kts | 11° |
| 2026-05-01 10:44 | -20.74702 | -42.36785 | 43764 ft | 440 kts | 11° |
| 2026-05-01 10:44 | -20.71717 | -42.36053 | 43886 ft | 440 kts | 11° |
| 2026-05-01 10:44 | -20.68731 | -42.35321 | 44037 ft | 440 kts | 11° |
| 2026-05-01 10:44 | -20.65748 | -42.34590 | 44146 ft | 440 kts | 11° |
| 2026-05-01 10:45 | -20.62764 | -42.33859 | 44258 ft | 440 kts | 11° |
| 2026-05-01 10:45 | -20.59782 | -42.33129 | 44391 ft | 440 kts | 11° |
| 2026-05-01 10:45 | -20.56806 | -42.32400 | 44506 ft | 439 kts | 11° |
| 2026-05-01 10:45 | -20.53826 | -42.31672 | 44626 ft | 439 kts | 11° |
| 2026-05-01 10:46 | -20.50844 | -42.30962 | 44731 ft | 439 kts | 11° |
| 2026-05-01 10:46 | -20.47860 | -42.30266 | 44834 ft | 439 kts | 11° |
| 2026-05-01 10:46 | -20.44876 | -42.29561 | 44937 ft | 439 kts | 11° |
| 2026-05-01 10:46 | -20.41904 | -42.28850 | 45044 ft | 439 kts | 11° |
| 2026-05-01 10:47 | -20.38926 | -42.28142 | 45141 ft | 438 kts | 11° |
| 2026-05-01 10:47 | -20.32937 | -42.26728 | 45145 ft | 443 kts | 11° |
| 2026-05-01 10:48 | -20.26887 | -42.25293 | 45154 ft | 448 kts | 11° |
| 2026-05-01 10:48 | -20.20815 | -42.23858 | 45157 ft | 452 kts | 11° |
| 2026-05-01 10:49 | -20.14647 | -42.22400 | 45156 ft | 456 kts | 11° |
| 2026-05-01 10:49 | -20.08429 | -42.20932 | 45153 ft | 460 kts | 11° |
| 2026-05-01 10:50 | -20.02172 | -42.19369 | 45159 ft | 463 kts | 13° |
| 2026-05-01 10:50 | -19.95874 | -42.17775 | 45166 ft | 467 kts | 12° |
| 2026-05-01 10:51 | -19.89539 | -42.16130 | 45164 ft | 470 kts | 12° |
| 2026-05-01 10:51 | -19.83159 | -42.14494 | 45163 ft | 473 kts | 12° |
| 2026-05-01 10:52 | -19.76742 | -42.12842 | 45165 ft | 476 kts | 12° |
| 2026-05-01 10:52 | -19.70255 | -42.11347 | 45162 ft | 478 kts | 11° |
| 2026-05-01 10:53 | -19.63745 | -42.09833 | 45165 ft | 481 kts | 11° |
| 2026-05-01 10:53 | -19.57185 | -42.08348 | 45163 ft | 483 kts | 11° |
| 2026-05-01 10:54 | -19.50599 | -42.06837 | 45166 ft | 485 kts | 11° |
| 2026-05-01 10:54 | -19.44008 | -42.05337 | 45161 ft | 484 kts | 11° |
| 2026-05-01 10:55 | -19.37444 | -42.03839 | 45157 ft | 481 kts | 11° |
| 2026-05-01 10:55 | -19.30919 | -42.02340 | 45153 ft | 479 kts | 12° |
| 2026-05-01 10:56 | -19.24446 | -42.00714 | 45151 ft | 478 kts | 12° |
| 2026-05-01 10:56 | -19.17991 | -41.99165 | 45152 ft | 479 kts | 12° |
| 2026-05-01 10:57 | -19.11473 | -41.97567 | 45156 ft | 482 kts | 12° |
| 2026-05-01 10:57 | -19.04935 | -41.95983 | 45158 ft | 483 kts | 12° |
| 2026-05-01 10:58 | -18.98375 | -41.94393 | 45161 ft | 484 kts | 12° |
| 2026-05-01 10:58 | -18.91794 | -41.92827 | 45163 ft | 484 kts | 12° |
| 2026-05-01 10:59 | -18.85239 | -41.91254 | 45161 ft | 482 kts | 12° |
| 2026-05-01 10:59 | -18.78715 | -41.89697 | 45157 ft | 480 kts | 12° |
| 2026-05-01 11:00 | -18.72216 | -41.88144 | 45154 ft | 478 kts | 12° |
| 2026-05-01 11:00 | -18.65734 | -41.86597 | 45152 ft | 477 kts | 12° |
| 2026-05-01 11:01 | -18.59248 | -41.85052 | 45155 ft | 479 kts | 12° |
| 2026-05-01 11:01 | -18.52726 | -41.83511 | 45153 ft | 481 kts | 12° |
| 2026-05-01 11:02 | -18.46187 | -41.81962 | 45156 ft | 482 kts | 12° |
| 2026-05-01 11:02 | -18.39634 | -41.80413 | 45154 ft | 484 kts | 12° |
| 2026-05-01 11:03 | -18.33060 | -41.78859 | 45156 ft | 483 kts | 12° |
| 2026-05-01 11:03 | -18.26569 | -41.77327 | 45152 ft | 480 kts | 12° |
| 2026-05-01 11:04 | -18.20061 | -41.75791 | 45149 ft | 478 kts | 12° |
| 2026-05-01 11:04 | -18.13578 | -41.74263 | 45146 ft | 477 kts | 12° |
| 2026-05-01 11:05 | -18.07101 | -41.72737 | 45147 ft | 478 kts | 12° |
| 2026-05-01 11:05 | -18.00588 | -41.71204 | 45150 ft | 480 kts | 12° |
| 2026-05-01 11:06 | -17.94058 | -41.69668 | 45153 ft | 482 kts | 12° |
| 2026-05-01 11:06 | -17.87513 | -41.68130 | 45155 ft | 483 kts | 12° |
| 2026-05-01 11:07 | -17.77673 | -41.65819 | 45152 ft | 482 kts | 12° |
| 2026-05-01 11:07 | -17.71144 | -41.64287 | 45148 ft | 479 kts | 12° |
| 2026-05-01 11:08 | -17.64646 | -41.62764 | 45145 ft | 477 kts | 12° |
| 2026-05-01 11:09 | -17.54926 | -41.60488 | 45144 ft | 478 kts | 12° |
| 2026-05-01 11:09 | -17.48460 | -41.58975 | 45147 ft | 480 kts | 12° |
| 2026-05-01 11:10 | -17.38656 | -41.56682 | 45144 ft | 482 kts | 12° |
| 2026-05-01 11:10 | -17.32058 | -41.55130 | 45147 ft | 483 kts | 12° |
| 2026-05-01 11:11 | -17.25546 | -41.53602 | 45143 ft | 482 kts | 12° |
| 2026-05-01 11:11 | -17.19017 | -41.52069 | 45139 ft | 479 kts | 12° |
| 2026-05-01 11:12 | -17.12526 | -41.50547 | 45136 ft | 477 kts | 12° |
| 2026-05-01 11:12 | -17.06046 | -41.49040 | 45134 ft | 477 kts | 12° |
| 2026-05-01 11:13 | -16.99559 | -41.47529 | 45135 ft | 478 kts | 12° |
| 2026-05-01 11:13 | -16.93056 | -41.46016 | 45155 ft | 480 kts | 12° |
| 2026-05-01 11:14 | -16.86521 | -41.44497 | 45155 ft | 481 kts | 12° |
| 2026-05-01 11:14 | -16.79977 | -41.42977 | 45157 ft | 483 kts | 12° |
| 2026-05-01 11:15 | -16.73412 | -41.41453 | 45159 ft | 483 kts | 12° |
| 2026-05-01 11:15 | -16.66869 | -41.39934 | 45150 ft | 481 kts | 12° |
| 2026-05-01 11:16 | -16.60344 | -41.38407 | 45147 ft | 479 kts | 12° |
| 2026-05-01 11:16 | -16.53862 | -41.36898 | 45143 ft | 477 kts | 12° |
| 2026-05-01 11:17 | -16.47392 | -41.35389 | 45142 ft | 477 kts | 12° |
| 2026-05-01 11:17 | -16.40905 | -41.33879 | 45145 ft | 478 kts | 12° |
| 2026-05-01 11:18 | -16.34399 | -41.32365 | 45130 ft | 481 kts | 12° |
| 2026-05-01 11:18 | -16.27862 | -41.30845 | 45136 ft | 482 kts | 12° |
| 2026-05-01 11:19 | -16.21302 | -41.29320 | 45138 ft | 483 kts | 12° |
| 2026-05-01 11:19 | -16.14750 | -41.27799 | 45133 ft | 481 kts | 12° |
| 2026-05-01 11:20 | -16.08234 | -41.26287 | 45130 ft | 479 kts | 12° |
| 2026-05-01 11:20 | -16.01740 | -41.24781 | 45127 ft | 477 kts | 12° |
| 2026-05-01 11:21 | -15.95266 | -41.23280 | 45124 ft | 477 kts | 12° |
| 2026-05-01 11:21 | -15.88788 | -41.21778 | 45126 ft | 478 kts | 12° |
| 2026-05-01 11:22 | -15.82320 | -41.20280 | 45130 ft | 480 kts | 12° |
| 2026-05-01 11:22 | -15.75747 | -41.18758 | 45132 ft | 482 kts | 12° |
| 2026-05-01 11:23 | -15.69235 | -41.17252 | 45134 ft | 483 kts | 12° |
| 2026-05-01 11:23 | -15.62665 | -41.15732 | 45136 ft | 484 kts | 12° |
| 2026-05-01 11:24 | -15.56112 | -41.14214 | 45134 ft | 482 kts | 12° |
| 2026-05-01 11:25 | -15.46321 | -41.11954 | 45129 ft | 479 kts | 11° |
| 2026-05-01 11:25 | -15.36536 | -41.09968 | 45126 ft | 477 kts | 11° |
| 2026-05-01 11:26 | -15.26731 | -41.07996 | 45130 ft | 480 kts | 11° |
| 2026-05-01 11:27 | -15.21274 | -41.06887 | 45132 ft | 481 kts | 11° |
| 2026-05-01 11:27 | -15.14687 | -41.05561 | 45134 ft | 483 kts | 11° |
| 2026-05-01 11:28 | -15.08079 | -41.04226 | 45136 ft | 484 kts | 11° |
| 2026-05-01 11:28 | -15.01466 | -41.02894 | 45136 ft | 483 kts | 11° |
| 2026-05-01 11:29 | -14.91588 | -41.00904 | 45134 ft | 481 kts | 11° |
| 2026-05-01 11:30 | -14.81754 | -40.98924 | 45131 ft | 479 kts | 11° |
| 2026-05-01 11:30 | -14.75213 | -40.97609 | 45125 ft | 478 kts | 11° |
| 2026-05-01 11:31 | -14.68690 | -40.96298 | 45124 ft | 479 kts | 11° |
| 2026-05-01 11:31 | -14.62136 | -40.94982 | 45127 ft | 481 kts | 11° |
| 2026-05-01 11:32 | -14.55601 | -40.93670 | 45126 ft | 483 kts | 11° |
| 2026-05-01 11:32 | -14.48994 | -40.92344 | 45129 ft | 484 kts | 11° |
| 2026-05-01 11:33 | -14.42374 | -40.91017 | 45127 ft | 484 kts | 11° |
| 2026-05-01 11:33 | -14.35774 | -40.89695 | 45124 ft | 482 kts | 11° |
| 2026-05-01 11:34 | -14.29198 | -40.88378 | 45123 ft | 480 kts | 11° |
| 2026-05-01 11:34 | -14.22644 | -40.87066 | 45120 ft | 479 kts | 11° |
| 2026-05-01 11:35 | -14.16118 | -40.85761 | 45118 ft | 478 kts | 11° |
| 2026-05-01 11:35 | -14.09587 | -40.84455 | 45118 ft | 479 kts | 11° |
| 2026-05-01 11:36 | -14.03031 | -40.83146 | 45121 ft | 481 kts | 11° |
| 2026-05-01 11:36 | -13.96450 | -40.81832 | 45124 ft | 483 kts | 11° |
| 2026-05-01 11:37 | -13.89845 | -40.80514 | 45127 ft | 484 kts | 11° |
| 2026-05-01 11:37 | -13.83236 | -40.79195 | 45128 ft | 483 kts | 11° |
| 2026-05-01 11:38 | -13.76649 | -40.77883 | 45125 ft | 481 kts | 11° |
| 2026-05-01 11:38 | -13.70100 | -40.76506 | 45122 ft | 479 kts | 12° |
| 2026-05-01 11:39 | -13.63581 | -40.75096 | 45121 ft | 478 kts | 12° |
| 2026-05-01 11:39 | -13.57083 | -40.73658 | 45119 ft | 478 kts | 12° |
| 2026-05-01 11:40 | -13.50570 | -40.72230 | 45121 ft | 479 kts | 12° |
| 2026-05-01 11:40 | -13.44034 | -40.70795 | 45124 ft | 481 kts | 12° |
| 2026-05-01 11:41 | -13.37528 | -40.69367 | 45135 ft | 483 kts | 12° |
| 2026-05-01 11:41 | -13.30949 | -40.67924 | 45137 ft | 484 kts | 12° |
| 2026-05-01 11:42 | -13.24363 | -40.66480 | 45138 ft | 483 kts | 12° |
| 2026-05-01 11:42 | -13.17798 | -40.65042 | 45135 ft | 481 kts | 12° |
| 2026-05-01 11:43 | -13.11265 | -40.63612 | 45132 ft | 480 kts | 12° |
| 2026-05-01 11:43 | -13.04748 | -40.62187 | 45130 ft | 478 kts | 12° |
| 2026-05-01 11:44 | -12.94992 | -40.60055 | 45130 ft | 479 kts | 12° |
| 2026-05-01 11:44 | -12.88461 | -40.58629 | 45133 ft | 481 kts | 12° |
| 2026-05-01 11:45 | -12.81908 | -40.57199 | 45143 ft | 482 kts | 12° |
| 2026-05-01 11:45 | -12.75332 | -40.55764 | 45147 ft | 484 kts | 12° |
| 2026-05-01 11:46 | -12.68753 | -40.54330 | 45147 ft | 482 kts | 12° |
| 2026-05-01 11:46 | -12.62204 | -40.52903 | 45144 ft | 481 kts | 12° |
| 2026-05-01 11:47 | -12.55671 | -40.51479 | 45141 ft | 479 kts | 12° |
| 2026-05-01 11:47 | -12.49202 | -40.50071 | 45139 ft | 478 kts | 12° |
| 2026-05-01 11:48 | -12.42696 | -40.48655 | 45138 ft | 479 kts | 12° |
| 2026-05-01 11:48 | -12.36168 | -40.47236 | 45141 ft | 480 kts | 12° |
| 2026-05-01 11:49 | -12.29618 | -40.45812 | 45143 ft | 482 kts | 12° |
| 2026-05-01 11:49 | -12.23053 | -40.44386 | 45134 ft | 484 kts | 12° |
| 2026-05-01 11:50 | -12.16465 | -40.42955 | 45134 ft | 483 kts | 12° |
| 2026-05-01 11:50 | -12.09892 | -40.41529 | 45132 ft | 482 kts | 12° |
| 2026-05-01 11:51 | -12.03339 | -40.40106 | 45130 ft | 481 kts | 12° |
| 2026-05-01 11:51 | -11.96802 | -40.38690 | 45128 ft | 479 kts | 12° |
| 2026-05-01 11:52 | -11.90283 | -40.37276 | 45126 ft | 478 kts | 12° |
| 2026-05-01 11:52 | -11.83784 | -40.35869 | 45125 ft | 478 kts | 12° |
| 2026-05-01 11:53 | -11.77258 | -40.34456 | 45127 ft | 480 kts | 12° |
| 2026-05-01 11:53 | -11.70715 | -40.33040 | 45127 ft | 481 kts | 12° |
| 2026-05-01 11:54 | -11.64149 | -40.31620 | 45129 ft | 483 kts | 12° |
| 2026-05-01 11:54 | -11.57569 | -40.30197 | 45128 ft | 484 kts | 12° |
| 2026-05-01 11:55 | -11.50974 | -40.28772 | 45113 ft | 483 kts | 12° |
| 2026-05-01 11:55 | -11.44419 | -40.27356 | 45110 ft | 481 kts | 12° |
| 2026-05-01 11:56 | -11.37886 | -40.25946 | 45107 ft | 479 kts | 12° |
| 2026-05-01 11:56 | -11.31381 | -40.24542 | 45105 ft | 477 kts | 12° |
| 2026-05-01 11:57 | -11.24882 | -40.23138 | 45104 ft | 478 kts | 12° |
| 2026-05-01 11:57 | -11.18403 | -40.21739 | 45108 ft | 480 kts | 12° |
| 2026-05-01 11:58 | -11.11855 | -40.20325 | 45108 ft | 482 kts | 12° |
| 2026-05-01 11:59 | -11.02001 | -40.18200 | 45109 ft | 483 kts | 12° |
| 2026-05-01 11:59 | -10.95429 | -40.16783 | 45106 ft | 482 kts | 12° |
| 2026-05-01 12:00 | -10.85614 | -40.14668 | 45091 ft | 479 kts | 12° |
| 2026-05-01 12:01 | -10.75859 | -40.12566 | 45088 ft | 476 kts | 12° |
| 2026-05-01 12:01 | -10.69371 | -40.11169 | 45087 ft | 477 kts | 12° |
| 2026-05-01 12:02 | -10.62862 | -40.09768 | 45090 ft | 479 kts | 12° |
| 2026-05-01 12:02 | -10.56336 | -40.08364 | 45093 ft | 481 kts | 12° |
| 2026-05-01 12:03 | -10.49778 | -40.06954 | 45088 ft | 482 kts | 12° |
| 2026-05-01 12:03 | -10.43205 | -40.05541 | 45090 ft | 482 kts | 12° |
| 2026-05-01 12:04 | -10.36648 | -40.04136 | 45088 ft | 481 kts | 12° |
| 2026-05-01 12:04 | -10.30114 | -40.02739 | 45091 ft | 479 kts | 12° |
| 2026-05-01 12:05 | -10.23646 | -40.01355 | 45083 ft | 477 kts | 12° |
| 2026-05-01 12:05 | -10.13910 | -39.99275 | 45084 ft | 476 kts | 12° |
| 2026-05-01 12:06 | -10.07412 | -39.97887 | 45085 ft | 478 kts | 12° |
| 2026-05-01 12:06 | -10.00875 | -39.96491 | 45086 ft | 480 kts | 12° |
| 2026-05-01 12:07 | -9.94327 | -39.95093 | 45072 ft | 483 kts | 12° |
| 2026-05-01 12:07 | -9.87757 | -39.93691 | 45076 ft | 482 kts | 12° |
| 2026-05-01 12:08 | -9.81205 | -39.92293 | 45080 ft | 480 kts | 12° |
| 2026-05-01 12:08 | -9.74675 | -39.90901 | 45071 ft | 479 kts | 12° |
| 2026-05-01 12:09 | -9.68164 | -39.89514 | 45069 ft | 477 kts | 12° |
| 2026-05-01 12:09 | -9.61672 | -39.88131 | 45075 ft | 476 kts | 12° |
| 2026-05-01 12:10 | -9.51930 | -39.86056 | 45074 ft | 478 kts | 11° |
| 2026-05-01 12:11 | -9.42145 | -39.83974 | 45073 ft | 480 kts | 11° |
| 2026-05-01 12:11 | -9.35634 | -39.82589 | 45079 ft | 482 kts | 11° |
| 2026-05-01 12:12 | -9.29064 | -39.81193 | 45081 ft | 482 kts | 11° |
| 2026-05-01 12:12 | -9.22507 | -39.79799 | 45076 ft | 480 kts | 11° |
| 2026-05-01 12:13 | -9.15977 | -39.78411 | 45073 ft | 479 kts | 11° |
| 2026-05-01 12:13 | -9.09470 | -39.77030 | 45070 ft | 477 kts | 11° |
| 2026-05-01 12:14 | -9.02927 | -39.76031 | 45087 ft | 475 kts | 6° |
| 2026-05-01 12:14 | -8.96355 | -39.75201 | 45091 ft | 477 kts | 7° |
| 2026-05-01 12:15 | -8.89764 | -39.74361 | 45091 ft | 479 kts | 6° |
| 2026-05-01 12:15 | -8.84257 | -39.73668 | 45093 ft | 480 kts | 6° |
| 2026-05-01 12:16 | -8.77615 | -39.72824 | 45095 ft | 482 kts | 6° |
| 2026-05-01 12:16 | -8.70967 | -39.71984 | 45095 ft | 480 kts | 6° |
| 2026-05-01 12:17 | -8.64345 | -39.71145 | 45090 ft | 479 kts | 6° |
| 2026-05-01 12:17 | -8.57748 | -39.70308 | 45089 ft | 477 kts | 6° |
| 2026-05-01 12:18 | -8.51176 | -39.69475 | 45083 ft | 475 kts | 6° |
| 2026-05-01 12:18 | -8.44614 | -39.68643 | 45082 ft | 476 kts | 6° |
| 2026-05-01 12:19 | -8.38028 | -39.67808 | 45088 ft | 478 kts | 6° |
| 2026-05-01 12:19 | -8.31412 | -39.66971 | 45088 ft | 480 kts | 6° |
| 2026-05-01 12:20 | -8.24777 | -39.66130 | 45091 ft | 482 kts | 6° |
| 2026-05-01 12:20 | -8.18129 | -39.65289 | 45091 ft | 480 kts | 6° |
| 2026-05-01 12:21 | -8.11508 | -39.64451 | 45089 ft | 478 kts | 6° |
| 2026-05-01 12:21 | -8.04906 | -39.63616 | 45086 ft | 477 kts | 6° |
| 2026-05-01 12:22 | -7.98335 | -39.62785 | 45083 ft | 475 kts | 6° |
| 2026-05-01 12:22 | -7.91779 | -39.61956 | 45075 ft | 476 kts | 6° |
| 2026-05-01 12:23 | -7.85197 | -39.61124 | 45081 ft | 478 kts | 6° |
| 2026-05-01 12:23 | -7.78627 | -39.60294 | 45086 ft | 479 kts | 6° |
| 2026-05-01 12:24 | -7.71997 | -39.59456 | 45082 ft | 481 kts | 6° |
| 2026-05-01 12:24 | -7.65357 | -39.58618 | 45079 ft | 481 kts | 6° |
| 2026-05-01 12:25 | -7.55417 | -39.57364 | 45076 ft | 478 kts | 6° |
| 2026-05-01 12:26 | -7.48821 | -39.56533 | 45077 ft | 478 kts | 6° |
| 2026-05-01 12:26 | -7.38894 | -39.55277 | 45079 ft | 480 kts | 6° |
| 2026-05-01 12:27 | -7.28978 | -39.54027 | 45077 ft | 477 kts | 7° |
| 2026-05-01 12:28 | -7.19090 | -39.52794 | 45071 ft | 478 kts | 6° |
| 2026-05-01 12:29 | -7.09199 | -39.51541 | 45072 ft | 477 kts | 6° |
| 2026-05-01 12:29 | -6.99333 | -39.50291 | 45077 ft | 476 kts | 6° |
| 2026-05-01 12:30 | -6.89492 | -39.49024 | 45069 ft | 477 kts | 9° |
| 2026-05-01 12:31 | -6.82949 | -39.47855 | 45078 ft | 478 kts | 9° |
| 2026-05-01 12:31 | -6.76376 | -39.46710 | 45075 ft | 480 kts | 9° |
| 2026-05-01 12:32 | -6.69782 | -39.45544 | 45086 ft | 482 kts | 9° |
| 2026-05-01 12:32 | -6.59917 | -39.43812 | 45081 ft | 481 kts | 9° |
| 2026-05-01 12:33 | -6.53344 | -39.42655 | 45084 ft | 479 kts | 9° |
| 2026-05-01 12:33 | -6.46787 | -39.41504 | 45082 ft | 477 kts | 9° |
| 2026-05-01 12:34 | -6.40249 | -39.40355 | 45065 ft | 476 kts | 9° |
| 2026-05-01 12:34 | -6.33718 | -39.39208 | 45071 ft | 477 kts | 9° |
| 2026-05-01 12:35 | -6.27166 | -39.38057 | 45072 ft | 479 kts | 9° |
| 2026-05-01 12:35 | -6.20596 | -39.36905 | 45074 ft | 481 kts | 9° |
| 2026-05-01 12:36 | -6.13996 | -39.35746 | 45071 ft | 482 kts | 9° |
| 2026-05-01 12:36 | -6.07381 | -39.34585 | 45068 ft | 482 kts | 9° |
| 2026-05-01 12:37 | -6.00789 | -39.33429 | 45054 ft | 480 kts | 9° |
| 2026-05-01 12:37 | -5.94219 | -39.32276 | 44985 ft | 479 kts | 9° |
| 2026-05-01 12:38 | -5.90935 | -39.31701 | 44710 ft | 480 kts | 9° |
| 2026-05-01 12:38 | -5.87631 | -39.31122 | 44067 ft | 483 kts | 9° |
| 2026-05-01 12:38 | -5.84330 | -39.30543 | 43428 ft | 478 kts | 8° |
| 2026-05-01 12:38 | -5.81053 | -39.29968 | 42791 ft | 475 kts | 8° |
| 2026-05-01 12:39 | -5.77810 | -39.29401 | 42153 ft | 471 kts | 9° |
| 2026-05-01 12:39 | -5.74589 | -39.28840 | 41534 ft | 468 kts | 8° |
| 2026-05-01 12:39 | -5.71401 | -39.28284 | 40919 ft | 462 kts | 9° |
| 2026-05-01 12:39 | -5.68235 | -39.27718 | 40300 ft | 462 kts | 9° |
| 2026-05-01 12:40 | -5.65110 | -39.27174 | 39693 ft | 463 kts | 9° |
| 2026-05-01 12:40 | -5.61890 | -39.26618 | 39061 ft | 466 kts | 9° |
| 2026-05-01 12:40 | -5.58714 | -39.26058 | 38447 ft | 471 kts | 9° |
| 2026-05-01 12:40 | -5.55475 | -39.25485 | 37812 ft | 474 kts | 9° |
| 2026-05-01 12:41 | -5.52219 | -39.24915 | 37178 ft | 475 kts | 9° |
| 2026-05-01 12:41 | -5.48964 | -39.24349 | 36535 ft | 474 kts | 9° |
| 2026-05-01 12:41 | -5.45730 | -39.23783 | 35906 ft | 472 kts | 9° |
| 2026-05-01 12:41 | -5.42497 | -39.23215 | 35275 ft | 472 kts | 9° |
| 2026-05-01 12:42 | -5.39243 | -39.22645 | 34645 ft | 478 kts | 9° |
| 2026-05-01 12:42 | -5.35948 | -39.22069 | 34004 ft | 484 kts | 9° |
| 2026-05-01 12:42 | -5.32617 | -39.21487 | 33348 ft | 488 kts | 9° |
| 2026-05-01 12:42 | -5.29272 | -39.20902 | 32694 ft | 488 kts | 9° |
| 2026-05-01 12:43 | -5.25935 | -39.20318 | 32045 ft | 486 kts | 10° |
| 2026-05-01 12:43 | -5.22610 | -39.19735 | 31396 ft | 484 kts | 10° |
| 2026-05-01 12:43 | -5.19288 | -39.19155 | 30744 ft | 485 kts | 10° |
| 2026-05-01 12:43 | -5.15947 | -39.18571 | 30096 ft | 490 kts | 11° |
| 2026-05-01 12:44 | -5.12571 | -39.17980 | 29440 ft | 495 kts | 11° |
| 2026-05-01 12:44 | -5.09165 | -39.17383 | 28775 ft | 498 kts | 11° |
| 2026-05-01 12:44 | -5.02342 | -39.16193 | 27446 ft | 493 kts | 11° |
| 2026-05-01 12:45 | -4.95690 | -39.15029 | 26159 ft | 479 kts | 11° |
| 2026-05-01 12:45 | -4.92429 | -39.14459 | 25518 ft | 473 kts | 11° |
| 2026-05-01 12:45 | -4.89202 | -39.13896 | 24892 ft | 469 kts | 11° |
| 2026-05-01 12:46 | -4.85999 | -39.13336 | 24269 ft | 466 kts | 11° |
| 2026-05-01 12:46 | -4.82817 | -39.12780 | 23652 ft | 463 kts | 11° |
| 2026-05-01 12:46 | -4.79657 | -39.12227 | 23041 ft | 459 kts | 11° |
| 2026-05-01 12:46 | -4.76524 | -39.11681 | 22429 ft | 455 kts | 11° |
| 2026-05-01 12:47 | -4.73426 | -39.11140 | 21828 ft | 449 kts | 11° |
| 2026-05-01 12:47 | -4.70362 | -39.10604 | 21234 ft | 445 kts | 11° |
| 2026-05-01 12:47 | -4.67327 | -39.10075 | 20642 ft | 442 kts | 11° |
| 2026-05-01 12:47 | -4.64316 | -39.09547 | 20059 ft | 437 kts | 11° |
| 2026-05-01 12:48 | -4.61335 | -39.09028 | 19482 ft | 432 kts | 11° |
| 2026-05-01 12:48 | -4.58386 | -39.08513 | 18910 ft | 428 kts | 11° |
| 2026-05-01 12:48 | -4.55475 | -39.08006 | 18341 ft | 423 kts | 11° |
| 2026-05-01 12:48 | -4.52583 | -39.07501 | 17784 ft | 420 kts | 11° |
| 2026-05-01 12:49 | -4.49753 | -39.07006 | 17225 ft | 417 kts | 11° |
| 2026-05-01 12:49 | -4.46893 | -39.06508 | 16670 ft | 404 kts | 11° |
| 2026-05-01 12:49 | -4.44223 | -39.06045 | 16149 ft | 384 kts | 11° |
| 2026-05-01 12:49 | -4.41662 | -39.05590 | 15651 ft | 363 kts | 13° |
| 2026-05-01 12:50 | -4.39320 | -39.04869 | 15181 ft | 343 kts | 24° |
| 2026-05-01 12:50 | -4.37244 | -39.03808 | 14740 ft | 328 kts | 31° |
| 2026-05-01 12:50 | -4.35296 | -39.02705 | 14313 ft | 316 kts | 30° |
| 2026-05-01 12:50 | -4.33410 | -39.01655 | 13899 ft | 305 kts | 30° |
| 2026-05-01 12:51 | -4.31586 | -39.00637 | 13501 ft | 295 kts | 30° |
| 2026-05-01 12:51 | -4.29818 | -38.99645 | 13114 ft | 288 kts | 31° |
| 2026-05-01 12:51 | -4.26363 | -38.97708 | 12360 ft | 284 kts | 30° |
| 2026-05-01 12:52 | -4.24630 | -38.96747 | 11978 ft | 285 kts | 30° |
| 2026-05-01 12:52 | -4.21168 | -38.94832 | 11227 ft | 283 kts | 30° |
| 2026-05-01 12:52 | -4.19446 | -38.93876 | 10856 ft | 283 kts | 30° |
| 2026-05-01 12:53 | -4.16032 | -38.91984 | 10102 ft | 278 kts | 30° |
| 2026-05-01 12:53 | -4.14344 | -38.91048 | 9736 ft | 276 kts | 30° |
| 2026-05-01 12:53 | -4.12675 | -38.90122 | 9369 ft | 274 kts | 30° |
| 2026-05-01 12:54 | -4.11003 | -38.89207 | 9016 ft | 273 kts | 27° |
| 2026-05-01 12:54 | -4.07424 | -38.87960 | 8362 ft | 272 kts | 20° |
| 2026-05-01 12:54 | -4.05634 | -38.87342 | 8040 ft | 272 kts | 20° |
| 2026-05-01 12:55 | -4.02054 | -38.86125 | 7395 ft | 271 kts | 20° |
| 2026-05-01 12:55 | -4.00297 | -38.85524 | 7082 ft | 269 kts | 22° |
| 2026-05-01 12:55 | -3.98681 | -38.84628 | 6809 ft | 263 kts | 36° |
| 2026-05-01 12:56 | -3.97205 | -38.83563 | 6575 ft | 261 kts | 36° |
| 2026-05-01 12:56 | -3.95720 | -38.82511 | 6337 ft | 262 kts | 36° |
| 2026-05-01 12:56 | -3.94232 | -38.81459 | 6094 ft | 263 kts | 36° |
| 2026-05-01 12:56 | -3.92737 | -38.80399 | 5858 ft | 263 kts | 36° |
| 2026-05-01 12:57 | -3.91248 | -38.79340 | 5617 ft | 263 kts | 36° |
| 2026-05-01 12:57 | -3.88277 | -38.77230 | 5127 ft | 260 kts | 36° |
| 2026-05-01 12:57 | -3.86804 | -38.76185 | 4887 ft | 259 kts | 36° |
| 2026-05-01 12:58 | -3.85340 | -38.75144 | 4655 ft | 257 kts | 36° |
| 2026-05-01 12:58 | -3.83882 | -38.74109 | 4422 ft | 256 kts | 36° |
| 2026-05-01 12:58 | -3.82389 | -38.73138 | 4182 ft | 256 kts | 27° |
| 2026-05-01 12:59 | -3.78973 | -38.72113 | 3683 ft | 257 kts | 16° |
| 2026-05-01 12:59 | -3.77373 | -38.71425 | 3415 ft | 244 kts | 32° |
| 2026-05-01 12:59 | -3.75188 | -38.69158 | 2952 ft | 215 kts | 60° |
| 2026-05-01 13:00 | -3.74379 | -38.66386 | 2461 ft | 205 kts | 88° |
| 2026-05-01 13:00 | -3.74528 | -38.64979 | 2211 ft | 204 kts | 103° |
| 2026-05-01 13:01 | -3.75199 | -38.62381 | 1705 ft | 180 kts | 106° |
| 2026-05-01 13:01 | -3.75485 | -38.61309 | 1477 ft | 146 kts | 105° |
| 2026-05-01 13:01 | -3.75957 | -38.59528 | 1109 ft | 123 kts | 107° |
| 2026-05-01 13:02 | -3.76175 | -38.58713 | 965 ft | 120 kts | 107° |
| 2026-05-01 13:07 | -3.77397 | -38.53261 | 85 ft | 0 kts | 296° |